Map

Track Data

SID SEASON NUMBER BASIN SUBBASIN NAME ISO_TIME NATURE LAT LON WMO_WIND WMO_PRES WMO_AGENCY TRACK_TYPE DIST2LAND LANDFALL IFLAG USA_AGENCY USA_ATCF_ID USA_LAT USA_LON USA_RECORD USA_STATUS USA_WIND USA_PRES USA_SSHS USA_R34_NE USA_R34_SE USA_R34_SW USA_R34_NW USA_R50_NE USA_R50_SE USA_R50_SW USA_R50_NW USA_R64_NE USA_R64_SE USA_R64_SW USA_R64_NW USA_POCI USA_ROCI USA_RMW USA_EYE TOKYO_LAT TOKYO_LON TOKYO_GRADE TOKYO_WIND TOKYO_PRES TOKYO_R50_DIR TOKYO_R50_LONG TOKYO_R50_SHORT TOKYO_R30_DIR TOKYO_R30_LONG TOKYO_R30_SHORT TOKYO_LAND CMA_LAT CMA_LON CMA_CAT CMA_WIND CMA_PRES HKO_LAT HKO_LON HKO_CAT HKO_WIND HKO_PRES NEWDELHI_LAT NEWDELHI_LON NEWDELHI_GRADE NEWDELHI_WIND NEWDELHI_PRES NEWDELHI_CI NEWDELHI_DP NEWDELHI_POCI REUNION_LAT REUNION_LON REUNION_TYPE REUNION_WIND REUNION_PRES REUNION_TNUM REUNION_CI REUNION_RMW REUNION_R34_NE REUNION_R34_SE REUNION_R34_SW REUNION_R34_NW REUNION_R50_NE REUNION_R50_SE REUNION_R50_SW REUNION_R50_NW REUNION_R64_NE REUNION_R64_SE REUNION_R64_SW REUNION_R64_NW BOM_LAT BOM_LON BOM_TYPE BOM_WIND BOM_PRES BOM_TNUM BOM_CI BOM_RMW BOM_R34_NE BOM_R34_SE BOM_R34_SW BOM_R34_NW BOM_R50_NE BOM_R50_SE BOM_R50_SW BOM_R50_NW BOM_R64_NE BOM_R64_SE BOM_R64_SW BOM_R64_NW BOM_ROCI BOM_POCI BOM_EYE BOM_POS_METHOD BOM_PRES_METHOD NADI_LAT NADI_LON NADI_CAT NADI_WIND NADI_PRES WELLINGTON_LAT WELLINGTON_LON WELLINGTON_WIND WELLINGTON_PRES DS824_LAT DS824_LON DS824_STAGE DS824_WIND DS824_PRES TD9636_LAT TD9636_LON TD9636_STAGE TD9636_WIND TD9636_PRES TD9635_LAT TD9635_LON TD9635_WIND TD9635_PRES TD9635_ROCI NEUMANN_LAT NEUMANN_LON NEUMANN_CLASS NEUMANN_WIND NEUMANN_PRES MLC_LAT MLC_LON MLC_CLASS MLC_WIND MLC_PRES USA_GUST BOM_GUST BOM_GUST_PER REUNION_GUST REUNION_GUST_PER USA_SEAHGT USA_SEARAD_NE USA_SEARAD_SE USA_SEARAD_SW USA_SEARAD_NW STORM_SPEED STORM_DIR
1966204N10325 1966 46 NA NA ELLA 1966-07-22 12:00:00 TS 10.0000 -35.0000 25 hurdat_atl main 1540 1525 O_____________ hurdat_atl AL051966 10.0000 -35.0000 TD 25 -1 18 282
1966204N10325 1966 46 NA NA ELLA 1966-07-22 15:00:00 TS 10.1930 -35.8923 main 1530 1523 P_____________ AL051966 10.1930 -35.8923 TD 25 -1 18 283
1966204N10325 1966 46 NA NA ELLA 1966-07-22 18:00:00 TS 10.4000 -36.8000 25 hurdat_atl main 1526 1522 O_____________ hurdat_atl AL051966 10.4000 -36.8000 TD 25 -1 19 284
1966204N10325 1966 46 NA NA ELLA 1966-07-22 21:00:00 TS 10.6347 -37.7352 main 1530 1528 P_____________ AL051966 10.6347 -37.7352 TD 25 -1 19 285
1966204N10325 1966 46 NA NA ELLA 1966-07-23 00:00:00 TS 10.9000 -38.7000 25 hurdat_atl main 1549 1503 O_____________ hurdat_atl AL051966 10.9000 -38.7000 TD 25 -1 20 286
1966204N10325 1966 46 NA NA ELLA 1966-07-23 03:00:00 TS 11.1847 -39.6927 main 1493 1428 P_____________ AL051966 11.1847 -39.6927 TD 25 -1 21 287
1966204N10325 1966 46 NA NA ELLA 1966-07-23 06:00:00 TS 11.5000 -40.7000 25 hurdat_atl main 1419 1350 O_____________ hurdat_atl AL051966 11.5000 -40.7000 TD 25 -1 21 288
1966204N10325 1966 46 NA NA ELLA 1966-07-23 09:00:00 TS 11.8272 -41.7078 main 1350 1303 P_____________ AL051966 11.8272 -41.7078 TD 27 -1 21 290
1966204N10325 1966 46 NA NA ELLA 1966-07-23 12:00:00 TS 12.2000 -42.7000 30 hurdat_atl main 1295 1257 O_____________ hurdat_atl AL051966 12.2000 -42.7000 TD 30 -1 21 293
1966204N10325 1966 46 NA NA ELLA 1966-07-23 15:00:00 TS 12.6345 -43.6503 main 1250 1228 P_____________ AL051966 12.6345 -43.6503 TD 30 -1 21 296
1966204N10325 1966 46 NA NA ELLA 1966-07-23 18:00:00 TS 13.1000 -44.6000 30 hurdat_atl main 1230 1211 O_____________ hurdat_atl AL051966 13.1000 -44.6000 TD 30 -1 21 296
1966204N10325 1966 46 NA NA ELLA 1966-07-23 21:00:00 TS 13.5647 -45.5926 main 1214 1188 P_____________ AL051966 13.5647 -45.5926 TD 32 -1 21 295
1966204N10325 1966 46 NA NA ELLA 1966-07-24 00:00:00 TS 14.0000 -46.6000 35 hurdat_atl main 1184 1157 O_____________ hurdat_atl AL051966 14.0000 -46.6000 TS 35 0 21 292
1966204N10325 1966 46 NA NA ELLA 1966-07-24 03:00:00 TS 14.3648 -47.6154 main 1166 1147 P_____________ AL051966 14.3648 -47.6154 TS 35 0 21 290
1966204N10325 1966 46 NA NA ELLA 1966-07-24 06:00:00 TS 14.7000 -48.6000 35 hurdat_atl main 1148 1141 O_____________ hurdat_atl AL051966 14.7000 -48.6000 TS 35 0 20 291
1966204N10325 1966 46 NA NA ELLA 1966-07-24 09:00:00 TS 15.0645 -49.5226 main 1151 1135 P_____________ AL051966 15.0645 -49.5226 TS 35 0 19 292
1966204N10325 1966 46 NA NA ELLA 1966-07-24 12:00:00 TS 15.4000 -50.4000 35 hurdat_atl main 1142 1134 O_____________ hurdat_atl AL051966 15.4000 -50.4000 TS 35 0 18 290
1966204N10325 1966 46 NA NA ELLA 1966-07-24 15:00:00 TS 15.6648 -51.2803 main 1142 1125 P_____________ AL051966 15.6648 -51.2803 TS 35 0 17 287
1966204N10325 1966 46 NA NA ELLA 1966-07-24 18:00:00 TS 15.9000 -52.1000 35 1009 hurdat_atl main 1125 1073 O_____________ hurdat_atl AL051966 15.9000 -52.1000 TS 35 1009 0 16 288
1966204N10325 1966 46 NA NA ELLA 1966-07-24 21:00:00 TS 16.1422 -52.8377 main 1073 1031 P_____________ AL051966 16.1422 -52.8377 TS 35 0 14 290
1966204N10325 1966 46 NA NA ELLA 1966-07-25 00:00:00 TS 16.4000 -53.5000 35 hurdat_atl main 1031 1003 O_____________ hurdat_atl AL051966 16.4000 -53.5000 TS 35 0 14 294
1966204N10325 1966 46 NA NA ELLA 1966-07-25 03:00:00 TS 16.6998 -54.1226 main 1003 979 P_____________ AL051966 16.6998 -54.1226 TS 35 0 13 298
1966204N10325 1966 46 NA NA ELLA 1966-07-25 06:00:00 TS 17.0000 -54.7000 35 hurdat_atl main 979 959 O_____________ hurdat_atl AL051966 17.0000 -54.7000 TS 35 0 12 297
1966204N10325 1966 46 NA NA ELLA 1966-07-25 09:00:00 TS 17.2572 -55.2503 main 961 943 P_____________ AL051966 17.2572 -55.2503 TS 35 0 12 295
1966204N10325 1966 46 NA NA ELLA 1966-07-25 12:00:00 TS 17.5000 -55.8000 35 1010 hurdat_atl main 945 927 O_____________ hurdat_atl AL051966 17.5000 -55.8000 TS 35 1010 0 12 295
1966204N10325 1966 46 NA NA ELLA 1966-07-25 15:00:00 TS 17.7574 -56.3926 main 936 909 P_____________ AL051966 17.7574 -56.3926 TS 35 1010 0 12 294
1966204N10325 1966 46 NA NA ELLA 1966-07-25 18:00:00 TS 18.0000 -57.0000 35 1010 hurdat_atl main 909 844 O_____________ hurdat_atl AL051966 18.0000 -57.0000 TS 35 1010 0 12 291
1966204N10325 1966 46 NA NA ELLA 1966-07-25 21:00:00 TS 18.2074 -57.6077 main 844 780 P_____________ AL051966 18.2074 -57.6077 TS 35 0 12 289
1966204N10325 1966 46 NA NA ELLA 1966-07-26 00:00:00 TS 18.4000 -58.2000 35 hurdat_atl main 780 727 O_____________ hurdat_atl AL051966 18.4000 -58.2000 TS 35 0 12 289
1966204N10325 1966 46 NA NA ELLA 1966-07-26 03:00:00 TS 18.5923 -58.7652 main 717 665 P_____________ AL051966 18.5923 -58.7652 TS 35 0 11 291
1966204N10325 1966 46 NA NA ELLA 1966-07-26 06:00:00 TS 18.8000 -59.3000 35 hurdat_atl main 665 614 O_____________ hurdat_atl AL051966 18.8000 -59.3000 TS 35 0 11 294
1966204N10325 1966 46 NA NA ELLA 1966-07-26 09:00:00 TS 19.0424 -59.8225 main 614 566 P_____________ AL051966 19.0424 -59.8225 TS 35 0 11 298
1966204N10325 1966 46 NA NA ELLA 1966-07-26 12:00:00 TS 19.3000 -60.3000 35 1008 hurdat_atl main 566 529 O_____________ hurdat_atl AL051966 19.3000 -60.3000 TS 35 1008 0 10 301
1966204N10325 1966 46 NA NA ELLA 1966-07-26 15:00:00 TS 19.5498 -60.7152 main 529 498 P_____________ AL051966 19.5498 -60.7152 TS 35 1008 0 9 304
1966204N10325 1966 46 NA NA ELLA 1966-07-26 18:00:00 TS 19.8000 -61.1000 35 1008 hurdat_atl main 498 466 O_____________ hurdat_atl AL051966 19.8000 -61.1000 TS 35 1008 0 9 304
1966204N10325 1966 46 NA NA ELLA 1966-07-26 21:00:00 TS 20.0500 -61.5076 main 466 442 P_____________ AL051966 20.0500 -61.5076 TS 35 0 9 304
1966204N10325 1966 46 NA NA ELLA 1966-07-27 00:00:00 TS 20.3000 -61.9000 35 hurdat_atl main 442 426 O_____________ hurdat_atl AL051966 20.3000 -61.9000 TS 35 0 9 305
1966204N10325 1966 46 NA NA ELLA 1966-07-27 03:00:00 TS 20.5423 -62.2502 main 418 413 P_____________ AL051966 20.5423 -62.2502 TS 35 0 8 307
1966204N10325 1966 46 NA NA ELLA 1966-07-27 06:00:00 TS 20.8000 -62.6000 35 hurdat_atl main 413 405 O_____________ hurdat_atl AL051966 20.8000 -62.6000 TS 35 0 9 309
1966204N10325 1966 46 NA NA ELLA 1966-07-27 09:00:00 TS 21.0999 -62.9850 main 406 401 P_____________ AL051966 21.0999 -62.9850 TS 35 0 10 309
1966204N10325 1966 46 NA NA ELLA 1966-07-27 12:00:00 TS 21.4000 -63.4000 35 1012 hurdat_atl main 406 400 O_____________ hurdat_atl AL051966 21.4000 -63.4000 TS 35 1012 0 10 305
1966204N10325 1966 46 NA NA ELLA 1966-07-27 15:00:00 TS 21.6499 -63.8428 main 404 404 P_____________ AL051966 21.6499 -63.8428 TS 35 1012 0 10 301
1966204N10325 1966 46 NA NA ELLA 1966-07-27 18:00:00 TS 21.9000 -64.3000 35 1012 hurdat_atl main 414 410 O_____________ hurdat_atl AL051966 21.9000 -64.3000 TS 35 1012 0 10 303
1966204N10325 1966 46 NA NA ELLA 1966-07-27 21:00:00 TS 22.1923 -64.7427 main 435 433 P_____________ AL051966 22.1923 -64.7427 TS 35 0 10 306
1966204N10325 1966 46 NA NA ELLA 1966-07-28 00:00:00 TS 22.5000 -65.2000 35 hurdat_atl main 460 459 O_____________ hurdat_atl AL051966 22.5000 -65.2000 TS 35 0 11 305
1966204N10325 1966 46 NA NA ELLA 1966-07-28 03:00:00 TS 22.8029 -65.6895 main 492 492 P_____________ AL051966 22.8029 -65.6895 TS 32 -1 11 303
1966204N10325 1966 46 NA NA ELLA 1966-07-28 06:00:00 TS 23.1000 -66.2000 30 hurdat_atl main 525 O_____________ hurdat_atl AL051966 23.1000 -66.2000 TD 30 -1 11 302

About IBTrACS Database

This database is a web-friendly format of International Best Track Archive for Climate Stewardship (IBTrACS), a global best track data archive curated by NOAA dating back to 1842.

Updated: 2022-06-29